sensor_id;sensor_type;location;lat;lon;timestamp;P1;durP1;ratioP1;P2;durP2;ratioP2
66702;SDS011;60933;46.398;-63.798;2023-03-01T00:01:15;0.73;;;0.50;;
66702;SDS011;60933;46.398;-63.798;2023-03-01T00:03:47;1.00;;;0.55;;
66702;SDS011;60933;46.398;-63.798;2023-03-01T00:06:13;1.67;;;0.50;;
66702;SDS011;60933;46.398;-63.798;2023-03-01T00:08:40;2.83;;;0.68;;
66702;SDS011;60933;46.398;-63.798;2023-03-01T00:11:08;0.63;;;0.30;;
66702;SDS011;60933;46.398;-63.798;2023-03-01T00:13:40;0.32;;;0.13;;
66702;SDS011;60933;46.398;-63.798;2023-03-01T00:16:12;0.60;;;0.30;;
66702;SDS011;60933;46.398;-63.798;2023-03-01T00:18:42;0.70;;;0.32;;
66702;SDS011;60933;46.398;-63.798;2023-03-01T00:21:08;1.50;;;0.30;;
66702;SDS011;60933;46.398;-63.798;2023-03-01T00:23:34;2.05;;;0.43;;
66702;SDS011;60933;46.398;-63.798;2023-03-01T00:26:01;0.85;;;0.30;;
66702;SDS011;60933;46.398;-63.798;2023-03-01T00:28:27;0.55;;;0.30;;
66702;SDS011;60933;46.398;-63.798;2023-03-01T00:30:53;0.57;;;0.22;;
66702;SDS011;60933;46.398;-63.798;2023-03-01T00:33:19;0.82;;;0.30;;
66702;SDS011;60933;46.398;-63.798;2023-03-01T00:35:48;1.13;;;0.47;;
66702;SDS011;60933;46.398;-63.798;2023-03-01T00:38:14;1.02;;;0.60;;
66702;SDS011;60933;46.398;-63.798;2023-03-01T00:40:40;0.85;;;0.52;;
66702;SDS011;60933;46.398;-63.798;2023-03-01T00:43:06;2.95;;;0.93;;
66702;SDS011;60933;46.398;-63.798;2023-03-01T00:45:32;0.40;;;0.25;;
66702;SDS011;60933;46.398;-63.798;2023-03-01T00:47:58;0.85;;;0.30;;
66702;SDS011;60933;46.398;-63.798;2023-03-01T00:50:24;2.50;;;0.30;;
66702;SDS011;60933;46.398;-63.798;2023-03-01T00:52:54;1.08;;;0.30;;
66702;SDS011;60933;46.398;-63.798;2023-03-01T00:55:21;2.97;;;0.43;;
66702;SDS011;60933;46.398;-63.798;2023-03-01T00:57:48;1.15;;;0.32;;
66702;SDS011;60933;46.398;-63.798;2023-03-01T01:00:14;3.08;;;0.60;;
66702;SDS011;60933;46.398;-63.798;2023-03-01T01:02:40;0.47;;;0.40;;
66702;SDS011;60933;46.398;-63.798;2023-03-01T01:05:06;0.80;;;0.47;;
66702;SDS011;60933;46.398;-63.798;2023-03-01T01:09:58;1.67;;;0.47;;
66702;SDS011;60933;46.398;-63.798;2023-03-01T01:12:24;1.52;;;0.52;;
66702;SDS011;60933;46.398;-63.798;2023-03-01T01:14:51;0.55;;;0.32;;
66702;SDS011;60933;46.398;-63.798;2023-03-01T01:17:17;1.02;;;0.43;;
66702;SDS011;60933;46.398;-63.798;2023-03-01T01:19:43;1.40;;;0.65;;
66702;SDS011;60933;46.398;-63.798;2023-03-01T01:22:09;0.73;;;0.28;;
66702;SDS011;60933;46.398;-63.798;2023-03-01T01:27:01;0.65;;;0.40;;
66702;SDS011;60933;46.398;-63.798;2023-03-01T01:29:27;1.08;;;0.43;;
66702;SDS011;60933;46.398;-63.798;2023-03-01T01:31:53;0.57;;;0.25;;
66702;SDS011;60933;46.398;-63.798;2023-03-01T01:34:19;1.67;;;0.40;;
66702;SDS011;60933;46.398;-63.798;2023-03-01T01:36:53;1.35;;;0.30;;
66702;SDS011;60933;46.398;-63.798;2023-03-01T01:39:22;0.50;;;0.25;;
66702;SDS011;60933;46.398;-63.798;2023-03-01T01:41:48;0.73;;;0.32;;
66702;SDS011;60933;46.398;-63.798;2023-03-01T01:44:16;1.50;;;0.63;;
66702;SDS011;60933;46.398;-63.798;2023-03-01T01:52:43;3.20;;;0.50;;
66702;SDS011;60933;46.398;-63.798;2023-03-01T01:57:47;2.05;;;0.57;;
66702;SDS011;60933;46.398;-63.798;2023-03-01T02:00:18;1.02;;;0.30;;
66702;SDS011;60933;46.398;-63.798;2023-03-01T02:02:47;0.43;;;0.20;;
66702;SDS011;60933;46.398;-63.798;2023-03-01T02:08:24;0.80;;;0.40;;
66702;SDS011;60933;46.398;-63.798;2023-03-01T02:10:55;1.60;;;0.52;;
66702;SDS011;60933;46.398;-63.798;2023-03-01T02:13:25;1.13;;;0.50;;
66702;SDS011;60933;46.398;-63.798;2023-03-01T02:15:51;0.77;;;0.40;;
66702;SDS011;60933;46.398;-63.798;2023-03-01T02:18:18;0.60;;;0.50;;
66702;SDS011;60933;46.398;-63.798;2023-03-01T02:23:24;0.90;;;0.52;;
66702;SDS011;60933;46.398;-63.798;2023-03-01T02:26:07;1.13;;;0.30;;
66702;SDS011;60933;46.398;-63.798;2023-03-01T02:28:45;1.00;;;1.00;;
66702;SDS011;60933;46.398;-63.798;2023-03-01T02:31:16;1.85;;;0.45;;
66702;SDS011;60933;46.398;-63.798;2023-03-01T02:34:03;0.90;;;0.30;;
66702;SDS011;60933;46.398;-63.798;2023-03-01T02:36:37;0.98;;;0.40;;
66702;SDS011;60933;46.398;-63.798;2023-03-01T02:39:07;0.70;;;0.43;;
66702;SDS011;60933;46.398;-63.798;2023-03-01T02:41:40;2.08;;;0.60;;
66702;SDS011;60933;46.398;-63.798;2023-03-01T02:44:09;0.77;;;0.35;;
66702;SDS011;60933;46.398;-63.798;2023-03-01T02:46:41;2.38;;;0.65;;
66702;SDS011;60933;46.398;-63.798;2023-03-01T02:54:31;0.90;;;0.32;;
66702;SDS011;60933;46.398;-63.798;2023-03-01T02:57:10;1.70;;;0.80;;
66702;SDS011;60933;46.398;-63.798;2023-03-01T02:59:37;0.70;;;0.43;;
66702;SDS011;60933;46.398;-63.798;2023-03-01T03:02:06;1.55;;;0.40;;
66702;SDS011;60933;46.398;-63.798;2023-03-01T03:04:33;1.65;;;0.40;;
66702;SDS011;60933;46.398;-63.798;2023-03-01T03:06:59;1.20;;;0.32;;
66702;SDS011;60933;46.398;-63.798;2023-03-01T03:09:25;0.95;;;0.60;;
66702;SDS011;60933;46.398;-63.798;2023-03-01T03:11:51;0.63;;;0.30;;
66702;SDS011;60933;46.398;-63.798;2023-03-01T03:14:17;2.08;;;0.40;;
66702;SDS011;60933;46.398;-63.798;2023-03-01T03:16:45;0.57;;;0.30;;
66702;SDS011;60933;46.398;-63.798;2023-03-01T03:19:13;2.58;;;0.50;;
66702;SDS011;60933;46.398;-63.798;2023-03-01T03:21:39;2.70;;;0.60;;
66702;SDS011;60933;46.398;-63.798;2023-03-01T03:24:05;0.80;;;0.45;;
66702;SDS011;60933;46.398;-63.798;2023-03-01T03:26:31;0.38;;;0.20;;
66702;SDS011;60933;46.398;-63.798;2023-03-01T03:28:57;0.50;;;0.35;;
66702;SDS011;60933;46.398;-63.798;2023-03-01T03:31:23;0.80;;;0.40;;
66702;SDS011;60933;46.398;-63.798;2023-03-01T03:33:50;2.92;;;0.90;;
66702;SDS011;60933;46.398;-63.798;2023-03-01T03:36:17;1.50;;;0.60;;
66702;SDS011;60933;46.398;-63.798;2023-03-01T03:38:44;2.20;;;0.60;;
66702;SDS011;60933;46.398;-63.798;2023-03-01T03:41:11;2.20;;;0.55;;
66702;SDS011;60933;46.398;-63.798;2023-03-01T03:43:38;3.30;;;0.90;;
66702;SDS011;60933;46.398;-63.798;2023-03-01T03:46:06;2.00;;;0.70;;
66702;SDS011;60933;46.398;-63.798;2023-03-01T03:48:36;4.22;;;0.68;;
66702;SDS011;60933;46.398;-63.798;2023-03-01T03:51:09;1.05;;;0.65;;
66702;SDS011;60933;46.398;-63.798;2023-03-01T03:53:36;1.73;;;0.70;;
66702;SDS011;60933;46.398;-63.798;2023-03-01T03:56:02;1.63;;;0.70;;
66702;SDS011;60933;46.398;-63.798;2023-03-01T03:58:28;1.67;;;1.20;;
66702;SDS011;60933;46.398;-63.798;2023-03-01T04:00:56;1.73;;;0.63;;
66702;SDS011;60933;46.398;-63.798;2023-03-01T04:03:23;0.75;;;0.47;;
66702;SDS011;60933;46.398;-63.798;2023-03-01T04:05:51;1.33;;;0.40;;
66702;SDS011;60933;46.398;-63.798;2023-03-01T04:08:18;1.42;;;0.60;;
66702;SDS011;60933;46.398;-63.798;2023-03-01T04:10:47;0.68;;;0.60;;
66702;SDS011;60933;46.398;-63.798;2023-03-01T04:13:16;2.20;;;0.65;;
66702;SDS011;60933;46.398;-63.798;2023-03-01T04:15:45;1.48;;;0.60;;
66702;SDS011;60933;46.398;-63.798;2023-03-01T04:18:14;1.27;;;0.52;;
66702;SDS011;60933;46.398;-63.798;2023-03-01T04:20:42;1.00;;;0.43;;
66702;SDS011;60933;46.398;-63.798;2023-03-01T04:23:12;4.43;;;0.68;;
66702;SDS011;60933;46.398;-63.798;2023-03-01T04:28:19;2.63;;;0.75;;
66702;SDS011;60933;46.398;-63.798;2023-03-01T04:30:50;1.77;;;0.52;;
66702;SDS011;60933;46.398;-63.798;2023-03-01T04:33:17;2.72;;;0.80;;
66702;SDS011;60933;46.398;-63.798;2023-03-01T04:35:43;0.75;;;0.60;;
66702;SDS011;60933;46.398;-63.798;2023-03-01T04:38:09;2.25;;;0.73;;
66702;SDS011;60933;46.398;-63.798;2023-03-01T04:43:02;1.02;;;0.47;;
66702;SDS011;60933;46.398;-63.798;2023-03-01T04:45:29;2.00;;;0.75;;
66702;SDS011;60933;46.398;-63.798;2023-03-01T04:47:57;1.13;;;0.40;;
66702;SDS011;60933;46.398;-63.798;2023-03-01T04:50:23;1.13;;;0.43;;
66702;SDS011;60933;46.398;-63.798;2023-03-01T04:52:51;2.00;;;0.60;;
66702;SDS011;60933;46.398;-63.798;2023-03-01T04:55:17;1.00;;;0.60;;
66702;SDS011;60933;46.398;-63.798;2023-03-01T04:57:44;1.38;;;0.52;;
66702;SDS011;60933;46.398;-63.798;2023-03-01T05:02:49;0.70;;;0.43;;
66702;SDS011;60933;46.398;-63.798;2023-03-01T05:05:23;0.60;;;0.40;;
66702;SDS011;60933;46.398;-63.798;2023-03-01T05:07:59;1.52;;;0.35;;
66702;SDS011;60933;46.398;-63.798;2023-03-01T05:10:27;2.53;;;1.20;;
66702;SDS011;60933;46.398;-63.798;2023-03-01T05:12:57;2.20;;;0.90;;
66702;SDS011;60933;46.398;-63.798;2023-03-01T05:15:25;6.38;;;1.63;;
66702;SDS011;60933;46.398;-63.798;2023-03-01T05:17:53;3.63;;;1.50;;
66702;SDS011;60933;46.398;-63.798;2023-03-01T05:20:21;2.08;;;0.52;;
66702;SDS011;60933;46.398;-63.798;2023-03-01T05:22:50;1.17;;;0.70;;
66702;SDS011;60933;46.398;-63.798;2023-03-01T05:25:17;2.05;;;0.63;;
66702;SDS011;60933;46.398;-63.798;2023-03-01T05:30:09;6.10;;;0.88;;
66702;SDS011;60933;46.398;-63.798;2023-03-01T05:32:42;2.38;;;0.40;;
66702;SDS011;60933;46.398;-63.798;2023-03-01T05:35:13;1.50;;;0.38;;
66702;SDS011;60933;46.398;-63.798;2023-03-01T05:37:41;1.63;;;0.52;;
66702;SDS011;60933;46.398;-63.798;2023-03-01T05:40:10;3.38;;;0.43;;
66702;SDS011;60933;46.398;-63.798;2023-03-01T05:42:41;1.00;;;0.43;;
66702;SDS011;60933;46.398;-63.798;2023-03-01T05:45:09;1.02;;;0.30;;
66702;SDS011;60933;46.398;-63.798;2023-03-01T05:47:35;0.88;;;0.52;;
66702;SDS011;60933;46.398;-63.798;2023-03-01T05:50:01;0.50;;;0.30;;
66702;SDS011;60933;46.398;-63.798;2023-03-01T05:54:53;0.95;;;0.55;;
66702;SDS011;60933;46.398;-63.798;2023-03-01T05:57:19;0.95;;;0.30;;
66702;SDS011;60933;46.398;-63.798;2023-03-01T05:59:45;1.10;;;0.32;;
66702;SDS011;60933;46.398;-63.798;2023-03-01T06:02:11;1.48;;;0.40;;
66702;SDS011;60933;46.398;-63.798;2023-03-01T06:04:37;1.10;;;0.40;;
66702;SDS011;60933;46.398;-63.798;2023-03-01T06:07:03;1.13;;;0.32;;
66702;SDS011;60933;46.398;-63.798;2023-03-01T06:09:29;0.55;;;0.35;;
66702;SDS011;60933;46.398;-63.798;2023-03-01T06:11:55;0.50;;;0.28;;
66702;SDS011;60933;46.398;-63.798;2023-03-01T06:14:21;1.80;;;0.50;;
66702;SDS011;60933;46.398;-63.798;2023-03-01T06:16:47;0.80;;;0.52;;
66702;SDS011;60933;46.398;-63.798;2023-03-01T06:19:13;1.23;;;0.50;;
66702;SDS011;60933;46.398;-63.798;2023-03-01T06:21:39;0.63;;;0.30;;
66702;SDS011;60933;46.398;-63.798;2023-03-01T06:24:05;1.15;;;0.32;;
66702;SDS011;60933;46.398;-63.798;2023-03-01T06:26:32;1.63;;;0.50;;
66702;SDS011;60933;46.398;-63.798;2023-03-01T06:28:58;4.35;;;0.30;;
66702;SDS011;60933;46.398;-63.798;2023-03-01T06:31:24;1.70;;;0.35;;
66702;SDS011;60933;46.398;-63.798;2023-03-01T06:33:50;0.10;;;0.10;;
66702;SDS011;60933;46.398;-63.798;2023-03-01T06:36:16;0.40;;;0.30;;
66702;SDS011;60933;46.398;-63.798;2023-03-01T06:38:44;0.95;;;0.40;;
66702;SDS011;60933;46.398;-63.798;2023-03-01T06:41:10;0.77;;;0.20;;
66702;SDS011;60933;46.398;-63.798;2023-03-01T06:43:36;2.72;;;0.38;;
66702;SDS011;60933;46.398;-63.798;2023-03-01T06:46:05;0.68;;;0.30;;
66702;SDS011;60933;46.398;-63.798;2023-03-01T06:48:35;2.10;;;0.40;;
66702;SDS011;60933;46.398;-63.798;2023-03-01T06:51:01;0.82;;;0.30;;
66702;SDS011;60933;46.398;-63.798;2023-03-01T06:53:27;0.45;;;0.32;;
66702;SDS011;60933;46.398;-63.798;2023-03-01T06:55:55;0.75;;;0.20;;
66702;SDS011;60933;46.398;-63.798;2023-03-01T06:58:22;4.05;;;0.50;;
66702;SDS011;60933;46.398;-63.798;2023-03-01T07:00:48;0.65;;;0.32;;
66702;SDS011;60933;46.398;-63.798;2023-03-01T07:03:14;1.42;;;0.50;;
66702;SDS011;60933;46.398;-63.798;2023-03-01T07:05:40;0.43;;;0.32;;
66702;SDS011;60933;46.398;-63.798;2023-03-01T07:08:07;0.50;;;0.50;;
66702;SDS011;60933;46.398;-63.798;2023-03-01T07:10:33;0.75;;;0.40;;
66702;SDS011;60933;46.398;-63.798;2023-03-01T07:12:59;1.85;;;0.20;;
66702;SDS011;60933;46.398;-63.798;2023-03-01T07:15:25;0.55;;;0.40;;
66702;SDS011;60933;46.398;-63.798;2023-03-01T07:17:52;0.90;;;0.38;;
66702;SDS011;60933;46.398;-63.798;2023-03-01T07:20:18;6.32;;;0.57;;
66702;SDS011;60933;46.398;-63.798;2023-03-01T07:22:50;0.85;;;0.55;;
66702;SDS011;60933;46.398;-63.798;2023-03-01T07:25:17;2.05;;;0.55;;
66702;SDS011;60933;46.398;-63.798;2023-03-01T07:27:43;0.70;;;0.22;;
66702;SDS011;60933;46.398;-63.798;2023-03-01T07:30:13;2.85;;;0.30;;
66702;SDS011;60933;46.398;-63.798;2023-03-01T07:32:39;0.95;;;0.30;;
66702;SDS011;60933;46.398;-63.798;2023-03-01T07:35:06;1.40;;;0.52;;
66702;SDS011;60933;46.398;-63.798;2023-03-01T07:39:57;1.45;;;0.63;;
66702;SDS011;60933;46.398;-63.798;2023-03-01T07:42:24;0.80;;;0.55;;
66702;SDS011;60933;46.398;-63.798;2023-03-01T07:44:50;1.45;;;0.50;;
66702;SDS011;60933;46.398;-63.798;2023-03-01T07:47:16;1.13;;;0.68;;
66702;SDS011;60933;46.398;-63.798;2023-03-01T07:49:42;0.35;;;0.20;;
66702;SDS011;60933;46.398;-63.798;2023-03-01T07:52:09;0.60;;;0.32;;
66702;SDS011;60933;46.398;-63.798;2023-03-01T07:54:37;2.05;;;0.80;;
66702;SDS011;60933;46.398;-63.798;2023-03-01T07:57:04;1.52;;;0.43;;
66702;SDS011;60933;46.398;-63.798;2023-03-01T07:59:30;0.40;;;0.30;;
66702;SDS011;60933;46.398;-63.798;2023-03-01T08:01:56;2.45;;;0.65;;
66702;SDS011;60933;46.398;-63.798;2023-03-01T08:04:23;1.77;;;0.60;;
66702;SDS011;60933;46.398;-63.798;2023-03-01T08:06:52;1.23;;;0.60;;
66702;SDS011;60933;46.398;-63.798;2023-03-01T08:09:19;1.42;;;0.40;;
66702;SDS011;60933;46.398;-63.798;2023-03-01T08:11:46;1.02;;;0.40;;
66702;SDS011;60933;46.398;-63.798;2023-03-01T08:14:12;1.17;;;0.43;;
66702;SDS011;60933;46.398;-63.798;2023-03-01T08:16:38;1.48;;;0.30;;
66702;SDS011;60933;46.398;-63.798;2023-03-01T08:21:34;0.77;;;0.50;;
66702;SDS011;60933;46.398;-63.798;2023-03-01T08:24:01;0.40;;;0.35;;
66702;SDS011;60933;46.398;-63.798;2023-03-01T08:26:27;0.88;;;0.40;;
66702;SDS011;60933;46.398;-63.798;2023-03-01T08:28:53;0.75;;;0.30;;
66702;SDS011;60933;46.398;-63.798;2023-03-01T08:31:21;0.90;;;0.50;;
66702;SDS011;60933;46.398;-63.798;2023-03-01T08:33:56;1.27;;;0.57;;
66702;SDS011;60933;46.398;-63.798;2023-03-01T08:36:29;1.55;;;0.40;;
66702;SDS011;60933;46.398;-63.798;2023-03-01T08:39:02;1.48;;;0.40;;
66702;SDS011;60933;46.398;-63.798;2023-03-01T08:41:29;0.85;;;0.20;;
66702;SDS011;60933;46.398;-63.798;2023-03-01T08:43:55;0.65;;;0.45;;
66702;SDS011;60933;46.398;-63.798;2023-03-01T08:46:33;1.10;;;0.40;;
66702;SDS011;60933;46.398;-63.798;2023-03-01T08:49:04;0.63;;;0.40;;
66702;SDS011;60933;46.398;-63.798;2023-03-01T08:51:32;2.50;;;0.40;;
66702;SDS011;60933;46.398;-63.798;2023-03-01T08:54:05;0.85;;;0.50;;
66702;SDS011;60933;46.398;-63.798;2023-03-01T08:56:36;1.95;;;0.60;;
66702;SDS011;60933;46.398;-63.798;2023-03-01T09:01:28;0.43;;;0.35;;
66702;SDS011;60933;46.398;-63.798;2023-03-01T09:03:54;1.48;;;0.60;;
66702;SDS011;60933;46.398;-63.798;2023-03-01T09:06:20;0.60;;;0.20;;
66702;SDS011;60933;46.398;-63.798;2023-03-01T09:08:49;0.63;;;0.20;;
66702;SDS011;60933;46.398;-63.798;2023-03-01T09:11:20;0.22;;;0.22;;
66702;SDS011;60933;46.398;-63.798;2023-03-01T09:13:47;0.30;;;0.30;;
66702;SDS011;60933;46.398;-63.798;2023-03-01T09:16:14;0.43;;;0.40;;
66702;SDS011;60933;46.398;-63.798;2023-03-01T09:18:42;1.65;;;0.22;;
66702;SDS011;60933;46.398;-63.798;2023-03-01T09:21:10;2.33;;;0.32;;
66702;SDS011;60933;46.398;-63.798;2023-03-01T09:23:40;0.70;;;0.40;;
66702;SDS011;60933;46.398;-63.798;2023-03-01T09:26:11;2.22;;;0.38;;
66702;SDS011;60933;46.398;-63.798;2023-03-01T09:28:41;1.13;;;0.32;;
66702;SDS011;60933;46.398;-63.798;2023-03-01T09:31:08;0.93;;;0.20;;
66702;SDS011;60933;46.398;-63.798;2023-03-01T09:33:34;0.95;;;0.40;;
66702;SDS011;60933;46.398;-63.798;2023-03-01T09:36:02;2.38;;;0.90;;
66702;SDS011;60933;46.398;-63.798;2023-03-01T09:38:30;1.67;;;0.50;;
66702;SDS011;60933;46.398;-63.798;2023-03-01T09:40:56;3.08;;;0.82;;
66702;SDS011;60933;46.398;-63.798;2023-03-01T09:46:04;0.80;;;0.30;;
66702;SDS011;60933;46.398;-63.798;2023-03-01T09:48:38;1.45;;;0.22;;
66702;SDS011;60933;46.398;-63.798;2023-03-01T09:51:29;0.30;;;0.25;;
66702;SDS011;60933;46.398;-63.798;2023-03-01T09:53:58;1.58;;;0.88;;
66702;SDS011;60933;46.398;-63.798;2023-03-01T10:07:21;7.47;;;2.70;;
66702;SDS011;60933;46.398;-63.798;2023-03-01T10:09:58;6.82;;;1.52;;
66702;SDS011;60933;46.398;-63.798;2023-03-01T10:12:33;5.57;;;1.02;;
66702;SDS011;60933;46.398;-63.798;2023-03-01T10:15:06;2.78;;;1.02;;
66702;SDS011;60933;46.398;-63.798;2023-03-01T10:17:48;1.35;;;0.50;;
66702;SDS011;60933;46.398;-63.798;2023-03-01T10:20:53;1.55;;;0.43;;
66702;SDS011;60933;46.398;-63.798;2023-03-01T10:23:23;0.90;;;0.57;;
66702;SDS011;60933;46.398;-63.798;2023-03-01T10:31:03;0.73;;;0.50;;
66702;SDS011;60933;46.398;-63.798;2023-03-01T10:33:31;2.08;;;0.70;;
66702;SDS011;60933;46.398;-63.798;2023-03-01T10:36:00;0.77;;;0.70;;
66702;SDS011;60933;46.398;-63.798;2023-03-01T10:38:27;2.38;;;0.77;;
66702;SDS011;60933;46.398;-63.798;2023-03-01T10:40:57;1.25;;;0.40;;
66702;SDS011;60933;46.398;-63.798;2023-03-01T10:43:49;1.35;;;0.30;;
66702;SDS011;60933;46.398;-63.798;2023-03-01T10:46:27;0.90;;;0.43;;
66702;SDS011;60933;46.398;-63.798;2023-03-01T10:49:15;1.38;;;0.50;;
66702;SDS011;60933;46.398;-63.798;2023-03-01T10:51:50;0.80;;;0.10;;
66702;SDS011;60933;46.398;-63.798;2023-03-01T10:54:30;0.32;;;0.13;;
66702;SDS011;60933;46.398;-63.798;2023-03-01T10:56:58;0.63;;;0.35;;
66702;SDS011;60933;46.398;-63.798;2023-03-01T10:59:30;0.93;;;0.40;;
66702;SDS011;60933;46.398;-63.798;2023-03-01T11:05:02;1.23;;;0.20;;
66702;SDS011;60933;46.398;-63.798;2023-03-01T11:08:00;0.40;;;0.30;;
66702;SDS011;60933;46.398;-63.798;2023-03-01T11:10:33;0.65;;;0.40;;
66702;SDS011;60933;46.398;-63.798;2023-03-01T11:15:34;0.60;;;0.30;;
66702;SDS011;60933;46.398;-63.798;2023-03-01T11:18:01;2.25;;;0.47;;
66702;SDS011;60933;46.398;-63.798;2023-03-01T11:20:32;0.80;;;0.30;;
66702;SDS011;60933;46.398;-63.798;2023-03-01T11:23:04;1.48;;;0.20;;
66702;SDS011;60933;46.398;-63.798;2023-03-01T11:25:36;1.15;;;0.43;;
66702;SDS011;60933;46.398;-63.798;2023-03-01T11:28:06;0.77;;;0.75;;
66702;SDS011;60933;46.398;-63.798;2023-03-01T11:30:41;0.90;;;0.52;;
66702;SDS011;60933;46.398;-63.798;2023-03-01T11:33:33;0.63;;;0.55;;
66702;SDS011;60933;46.398;-63.798;2023-03-01T11:36:07;1.60;;;0.32;;
66702;SDS011;60933;46.398;-63.798;2023-03-01T11:38:44;0.70;;;0.40;;
66702;SDS011;60933;46.398;-63.798;2023-03-01T11:41:14;1.48;;;0.50;;
66702;SDS011;60933;46.398;-63.798;2023-03-01T11:44:03;3.67;;;0.63;;
66702;SDS011;60933;46.398;-63.798;2023-03-01T11:47:03;0.65;;;0.22;;
66702;SDS011;60933;46.398;-63.798;2023-03-01T11:52:25;1.88;;;0.50;;
66702;SDS011;60933;46.398;-63.798;2023-03-01T12:03:54;1.27;;;0.43;;
66702;SDS011;60933;46.398;-63.798;2023-03-01T12:11:49;0.88;;;0.50;;
66702;SDS011;60933;46.398;-63.798;2023-03-01T12:14:30;0.70;;;0.70;;
66702;SDS011;60933;46.398;-63.798;2023-03-01T12:19:57;2.00;;;0.40;;
66702;SDS011;60933;46.398;-63.798;2023-03-01T12:51:22;0.65;;;0.35;;
66702;SDS011;60933;46.398;-63.798;2023-03-01T12:53:53;0.75;;;0.43;;
66702;SDS011;60933;46.398;-63.798;2023-03-01T12:56:22;0.57;;;0.38;;
66702;SDS011;60933;46.398;-63.798;2023-03-01T13:03:55;1.75;;;0.70;;
66702;SDS011;60933;46.398;-63.798;2023-03-01T13:06:58;2.83;;;0.95;;
66702;SDS011;60933;46.398;-63.798;2023-03-01T13:12:42;9.50;;;2.78;;
66702;SDS011;60933;46.398;-63.798;2023-03-01T13:15:35;15.65;;;5.10;;
66702;SDS011;60933;46.398;-63.798;2023-03-01T13:18:27;14.70;;;4.85;;
66702;SDS011;60933;46.398;-63.798;2023-03-01T13:20:56;16.42;;;4.65;;
66702;SDS011;60933;46.398;-63.798;2023-03-01T13:23:27;19.38;;;6.47;;
66702;SDS011;60933;46.398;-63.798;2023-03-01T13:31:55;22.83;;;8.02;;
66702;SDS011;60933;46.398;-63.798;2023-03-01T13:34:00;20.55;;;8.80;;
66702;SDS011;60933;46.398;-63.798;2023-03-01T13:39:43;20.33;;;8.13;;
66702;SDS011;60933;46.398;-63.798;2023-03-01T13:41:57;12.70;;;5.43;;
66702;SDS011;60933;46.398;-63.798;2023-03-01T13:44:37;10.15;;;4.60;;
66702;SDS011;60933;46.398;-63.798;2023-03-01T13:49:43;4.50;;;2.10;;
66702;SDS011;60933;46.398;-63.798;2023-03-01T13:58:32;1.23;;;0.50;;
66702;SDS011;60933;46.398;-63.798;2023-03-01T14:01:26;2.05;;;0.40;;
66702;SDS011;60933;46.398;-63.798;2023-03-01T14:03:54;3.42;;;0.40;;
66702;SDS011;60933;46.398;-63.798;2023-03-01T14:06:22;3.72;;;0.90;;
66702;SDS011;60933;46.398;-63.798;2023-03-01T14:08:51;1.23;;;0.70;;
66702;SDS011;60933;46.398;-63.798;2023-03-01T14:11:31;0.55;;;0.30;;
66702;SDS011;60933;46.398;-63.798;2023-03-01T14:19:21;1.20;;;0.40;;
66702;SDS011;60933;46.398;-63.798;2023-03-01T14:22:10;0.88;;;0.20;;
66702;SDS011;60933;46.398;-63.798;2023-03-01T14:24:59;2.45;;;0.32;;
66702;SDS011;60933;46.398;-63.798;2023-03-01T14:27:30;1.67;;;0.30;;
66702;SDS011;60933;46.398;-63.798;2023-03-01T14:30:02;2.28;;;0.30;;
66702;SDS011;60933;46.398;-63.798;2023-03-01T14:32:35;0.68;;;0.22;;
66702;SDS011;60933;46.398;-63.798;2023-03-01T14:35:01;1.63;;;0.63;;
66702;SDS011;60933;46.398;-63.798;2023-03-01T14:39:57;1.17;;;0.30;;
66702;SDS011;60933;46.398;-63.798;2023-03-01T14:42:27;0.82;;;0.30;;
66702;SDS011;60933;46.398;-63.798;2023-03-01T14:44:56;0.98;;;0.57;;
66702;SDS011;60933;46.398;-63.798;2023-03-01T14:47:33;1.10;;;0.30;;
66702;SDS011;60933;46.398;-63.798;2023-03-01T14:50:15;0.77;;;0.20;;
66702;SDS011;60933;46.398;-63.798;2023-03-01T14:52:50;0.80;;;0.30;;
66702;SDS011;60933;46.398;-63.798;2023-03-01T14:55:26;0.25;;;0.22;;
66702;SDS011;60933;46.398;-63.798;2023-03-01T14:58:02;0.82;;;0.20;;
66702;SDS011;60933;46.398;-63.798;2023-03-01T15:00:30;1.77;;;0.32;;
66702;SDS011;60933;46.398;-63.798;2023-03-01T15:03:00;0.57;;;0.28;;
66702;SDS011;60933;46.398;-63.798;2023-03-01T15:05:38;0.75;;;0.35;;
66702;SDS011;60933;46.398;-63.798;2023-03-01T15:08:07;1.00;;;0.47;;
66702;SDS011;60933;46.398;-63.798;2023-03-01T15:13:42;0.77;;;0.28;;
66702;SDS011;60933;46.398;-63.798;2023-03-01T15:16:12;0.47;;;0.20;;
66702;SDS011;60933;46.398;-63.798;2023-03-01T15:18:52;1.77;;;0.22;;
66702;SDS011;60933;46.398;-63.798;2023-03-01T15:21:33;1.05;;;0.22;;
66702;SDS011;60933;46.398;-63.798;2023-03-01T15:24:16;0.65;;;0.60;;
66702;SDS011;60933;46.398;-63.798;2023-03-01T15:26:49;0.70;;;0.38;;
66702;SDS011;60933;46.398;-63.798;2023-03-01T15:29:28;0.73;;;0.22;;
66702;SDS011;60933;46.398;-63.798;2023-03-01T15:32:05;0.30;;;0.22;;
66702;SDS011;60933;46.398;-63.798;2023-03-01T15:34:50;0.75;;;0.40;;
66702;SDS011;60933;46.398;-63.798;2023-03-01T15:40:21;2.38;;;0.30;;
66702;SDS011;60933;46.398;-63.798;2023-03-01T15:42:59;1.08;;;0.40;;
66702;SDS011;60933;46.398;-63.798;2023-03-01T15:45:28;0.88;;;0.40;;
66702;SDS011;60933;46.398;-63.798;2023-03-01T15:47:58;1.20;;;0.30;;
66702;SDS011;60933;46.398;-63.798;2023-03-01T15:53:01;2.63;;;0.30;;
66702;SDS011;60933;46.398;-63.798;2023-03-01T15:55:36;4.35;;;0.32;;
66702;SDS011;60933;46.398;-63.798;2023-03-01T16:00:34;1.98;;;0.65;;
66702;SDS011;60933;46.398;-63.798;2023-03-01T16:03:00;1.10;;;0.40;;
66702;SDS011;60933;46.398;-63.798;2023-03-01T16:07:55;1.45;;;0.22;;
66702;SDS011;60933;46.398;-63.798;2023-03-01T16:10:22;1.63;;;0.43;;
66702;SDS011;60933;46.398;-63.798;2023-03-01T16:12:49;3.83;;;0.80;;
66702;SDS011;60933;46.398;-63.798;2023-03-01T16:15:20;1.70;;;0.95;;
66702;SDS011;60933;46.398;-63.798;2023-03-01T16:17:51;2.55;;;0.50;;
66702;SDS011;60933;46.398;-63.798;2023-03-01T16:20:20;1.88;;;0.30;;
66702;SDS011;60933;46.398;-63.798;2023-03-01T16:22:47;0.68;;;0.30;;
66702;SDS011;60933;46.398;-63.798;2023-03-01T16:25:14;1.17;;;0.30;;
66702;SDS011;60933;46.398;-63.798;2023-03-01T16:27:42;1.85;;;0.20;;
66702;SDS011;60933;46.398;-63.798;2023-03-01T16:30:10;2.10;;;0.75;;
66702;SDS011;60933;46.398;-63.798;2023-03-01T16:32:38;1.90;;;0.43;;
66702;SDS011;60933;46.398;-63.798;2023-03-01T16:35:05;0.85;;;0.55;;
66702;SDS011;60933;46.398;-63.798;2023-03-01T16:37:32;0.47;;;0.35;;
66702;SDS011;60933;46.398;-63.798;2023-03-01T16:39:59;0.77;;;0.22;;
66702;SDS011;60933;46.398;-63.798;2023-03-01T16:42:25;3.20;;;0.63;;
66702;SDS011;60933;46.398;-63.798;2023-03-01T16:44:55;2.38;;;0.63;;
66702;SDS011;60933;46.398;-63.798;2023-03-01T16:47:21;1.58;;;0.30;;
66702;SDS011;60933;46.398;-63.798;2023-03-01T16:49:50;1.67;;;0.40;;
66702;SDS011;60933;46.398;-63.798;2023-03-01T16:52:17;1.83;;;0.80;;
66702;SDS011;60933;46.398;-63.798;2023-03-01T16:54:44;1.58;;;0.40;;
66702;SDS011;60933;46.398;-63.798;2023-03-01T16:57:10;0.98;;;0.47;;
66702;SDS011;60933;46.398;-63.798;2023-03-01T16:59:36;0.43;;;0.35;;
66702;SDS011;60933;46.398;-63.798;2023-03-01T17:02:03;0.32;;;0.20;;
66702;SDS011;60933;46.398;-63.798;2023-03-01T17:04:31;2.17;;;0.30;;
66702;SDS011;60933;46.398;-63.798;2023-03-01T17:06:57;1.48;;;0.32;;
66702;SDS011;60933;46.398;-63.798;2023-03-01T17:09:23;1.92;;;0.43;;
66702;SDS011;60933;46.398;-63.798;2023-03-01T17:11:49;1.05;;;0.45;;
66702;SDS011;60933;46.398;-63.798;2023-03-01T17:14:15;0.40;;;0.25;;
66702;SDS011;60933;46.398;-63.798;2023-03-01T17:16:42;0.40;;;0.35;;
66702;SDS011;60933;46.398;-63.798;2023-03-01T17:19:10;1.25;;;0.50;;
66702;SDS011;60933;46.398;-63.798;2023-03-01T17:21:37;2.15;;;0.80;;